Accueil
METAR-TAF:

METAR-TAF

Aéroports :

Aéroport de Prague-Václav-Havel

Prague, République Tchèque

latitude: 50-06N, longitude: 014-15E, altitude: 365 m

Observation

Le bulletin a été fait il y a 19 minutes, à 04:00 UTC
Vent 5 kt de sud
Température 15°C
Humidité 82%
Pression 1014 hPa
Visibilité 10 km ou plus
pas de nuages en-dessous de 1500 mètres et pas de cumulonimbus.

METAR: LKPR 170400Z 18005KT CAVOK 15/12 Q1014 NOSIG

Heure: 06:19 (04:19 UTC)

Prévision

Le bulletin a été fait il y a 2 heures et 19 minutes, à 02:00 UTC
Prévision valable du 17 à 03 UTC au 18 à 09 UTC
Vent 6 kt de sud
Visibilité 10 km ou plus
pas de nuages en-dessous de 1500 mètres et pas de cumulonimbus.
Temporairement
du 17 à 10 UTC au 17 à 18 UTC
Visibilité: 5000 m
Nuages épars à une hauteur de 3500 ft, Cumulus congestus.
averses de pluie,

TAF: LKPR 170200Z 1703/1809 19006KT CAVOK TEMPO 1710/1718 5000 SHRA SCT035TCU

Observations et prévisions météorologiques de plus de 4000 aéroports (messages METAR et TAF).

Les stations disponibles sont représentées par des disques jaunes et rouges sur la carte.

Passer la souris dessus pour voir le nom de la station.

Cliquer dessus pour voir les observations et prévisions météorologiques.

Pour changer de carte: cliquez sur les boutons verts avec une croix noire pour zoomer, sur le bouton vert avec un tiret pour effectuer un zoom arrière, ou sur les flèches vertes pour les cartes adjacentes.


METAR-TAF: